Time;durP1;ratioP1;P1;durP2;ratioP2;P2;SDS_P1;SDS_P2;PMS_P1;PMS_P2;Temp;Humidity;BMP_temperature;BMP_pressure;BME280_temperature;BME280_humidity;BME280_pressure;Samples;Min_cycle;Max_cycle;Signal;HPM_P1;HPM_P2
2023/04/07 03:43:15;;;;;;;;;;;;;;;;;;6187786;23;19920;-92
2023/04/07 03:45:43;;;;;;;;;;;;;;;;;;6128953;23;19927;-91
2023/04/07 03:48:13;;;;;;;;;;;;;;;;;;6104726;23;19943;-89
2023/04/07 03:51:16;;;;;;;;;;;;;;;;;;6143493;23;19951;-90
2023/04/07 03:53:46;;;;;;;;;;;;;;;;;;6131630;23;19925;-92
2023/04/07 03:56:31;;;;;;;;;;;;;;;;;;6157508;23;20237;-92
2023/04/07 03:59:00;;;;;;;;;;;;;;;;;;6129000;23;19921;-92
2023/04/07 04:01:35;;;;;;;;;;;;;;;;;;6136755;23;19920;-92
2023/04/07 04:04:10;;;;;;;;;;;;;;;;;;6128206;23;19924;-92
2023/04/07 04:06:37;;;;;;;;;;;;;;;;;;6132316;23;20256;-92
2023/04/07 04:09:21;;;;;;;;;;;;;;;;;;6139479;23;19920;-93
2023/04/07 04:11:49;;;;;;;;;;;;;;;;;;6153409;23;20284;-92
2023/04/07 04:14:18;;;;;;;;;;;;;;;;;;6139264;23;19920;-92
2023/04/07 04:16:53;;;;;;;;;;;;;;;;;;6206038;23;19924;-91
2023/04/07 04:19:30;;;;;;;;;;;;;;;;;;6214022;23;19930;-93
2023/04/07 04:22:01;;;;;;;;;;;;;;;;;;6181436;23;19923;-93
2023/04/07 04:24:33;;;;;;;;;;;;;;;;;;6217686;23;19956;-93
2023/04/07 04:27:02;;;;;;;;;;;;;;;;;;6196444;23;20237;-87
2023/04/07 04:29:32;;;;;;;;;;;;;;;;;;6187102;23;19931;-87
2023/04/07 04:32:00;;;;;;;;;;;;;;;;;;6184700;23;19927;-87
2023/04/07 04:34:30;;;;;;;;;;;;;;;;;;6162233;23;19924;-88
2023/04/07 04:36:57;;;;;;;;;;;;;;;;;;6187547;23;20684;-87
2023/04/07 04:39:24;;;;;;;;;;;;;;;;;;6187162;23;19924;-86
2023/04/07 04:41:52;;;;;;;;;;;;;;;;;;6186225;23;19920;-91
2023/04/07 04:44:22;;;;;;;;;;;;;;;;;;6162358;23;19927;-89
2023/04/07 04:46:51;;;;;;;;;;;;;;;;;;6190302;23;19927;-89
2023/04/07 04:49:18;;;;;;;;;;;;;;;;;;6211161;23;19920;-88
2023/04/07 04:51:50;;;;;;;;;;;;;;;;;;6197087;23;19927;-88
2023/04/07 04:54:22;;;;;;;;;;;;;;;;;;6161986;23;20366;-87
2023/04/07 04:56:53;;;;;;;;;;;;;;;;;;6188780;23;19920;-87
2023/04/07 04:59:22;;;;;;;;;;;;;;;;;;6163008;23;19931;-87
2023/04/07 05:02:08;;;;;;;;;;;;;;;;;;6164374;23;19920;-87
2023/04/07 05:04:35;;;;;;;;;;;;;;;;;;6165451;23;19927;-87
2023/04/07 05:07:18;;;;;;;;;;;;;;;;;;6165130;23;19924;-88
2023/04/07 05:09:45;;;;;;;;;;;;;;;;;;6165164;23;20379;-88
2023/04/07 05:12:15;;;;;;;;;;;;;;;;;;6216296;23;20336;-88
2023/04/07 05:14:47;;;;;;;;;;;;;;;;;;6200500;23;19920;-87
2023/04/07 05:17:18;;;;;;;;;;;;;;;;;;6189927;23;20332;-87
2023/04/07 05:19:45;;;;;;;;;;;;;;;;;;6189940;23;19919;-87
2023/04/07 05:22:20;;;;;;;;;;;;;;;;;;6165076;23;20252;-88
2023/04/07 05:24:48;;;;;;;;;;;;;;;;;;6165087;23;19931;-88
2023/04/07 05:27:21;;;;;;;;;;;;;;;;;;6165506;23;19927;-88
2023/04/07 05:29:52;;;;;;;;;;;;;;;;;;6165519;23;19927;-88
2023/04/07 05:32:29;;;;;;;;;;;;;;;;;;6201173;23;19927;-88
2023/04/07 05:35:02;;;;;;;;;;;;;;;;;;6191441;23;19927;-87
2023/04/07 05:37:34;;;;;;;;;;;;;;;;;;6180983;23;19914;-88
2023/04/07 05:40:05;;;;;;;;;;;;;;;;;;6219602;22;19944;-87
2023/04/07 05:42:32;;;;;;;;;;;;;;;;;;6219493;22;19952;-88
2023/04/07 05:44:59;;;;;;;;;;;;;;;;;;6194357;23;19960;-88
2023/04/07 05:47:29;;;;;;;;;;;;;;;;;;6196891;23;19920;-88
2023/04/07 05:49:59;;;;;;;;;;;;;;;;;;6165783;23;19920;-88
2023/04/07 05:52:26;;;;;;;;;;;;;;;;;;6191341;23;19919;-88
2023/04/07 05:55:05;;;;;;;;;;;;;;;;;;6164838;23;19920;-88
2023/04/07 05:57:33;;;;;;;;;;;;;;;;;;6189487;23;19927;-88
2023/04/07 06:00:07;;;;;;;;;;;;;;;;;;6190277;23;19920;-87
2023/04/07 06:02:42;;;;;;;;;;;;;;;;;;6225779;23;19920;-88
2023/04/07 06:05:15;;;;;;;;;;;;;;;;;;6164421;23;19927;-88
2023/04/07 06:07:42;;;;;;;;;;;;;;;;;;6215632;23;19920;-88
2023/04/07 06:10:09;;;;;;;;;;;;;;;;;;6215842;23;19931;-88
2023/04/07 06:12:41;;;;;;;;;;;;;;;;;;6199168;23;19920;-87
2023/04/07 06:15:11;;;;;;;;;;;;;;;;;;6164227;23;20340;-88
2023/04/07 06:17:38;;;;;;;;;;;;;;;;;;6163953;23;19931;-88
2023/04/07 06:20:10;;;;;;;;;;;;;;;;;;6189307;23;19924;-88
2023/04/07 06:22:40;;;;;;;;;;;;;;;;;;6198770;23;20336;-88
2023/04/07 06:25:08;;;;;;;;;;;;;;;;;;6215869;23;20358;-87
2023/04/07 06:27:35;;;;;;;;;;;;;;;;;;6215464;23;19920;-87
2023/04/07 06:30:02;;;;;;;;;;;;;;;;;;6189424;23;19920;-88
2023/04/07 06:32:32;;;;;;;;;;;;;;;;;;6215146;23;19920;-88
2023/04/07 06:35:01;;;;;;;;;;;;;;;;;;6215702;23;19924;-88
2023/04/07 06:37:29;;;;;;;;;;;;;;;;;;6215638;23;19927;-88
2023/04/07 06:39:59;;;;;;;;;;;;;;;;;;6188883;23;19924;-87
2023/04/07 06:42:26;;;;;;;;;;;;;;;;;;6215838;23;19923;-87
2023/04/07 06:45:12;;;;;;;;;;;;;;;;;;6164418;23;19920;-87
2023/04/07 06:47:39;;;;;;;;;;;;;;;;;;6215472;23;20347;-88
2023/04/07 06:50:09;;;;;;;;;;;;;;;;;;6215437;23;19920;-88
2023/04/07 06:52:37;;;;;;;;;;;;;;;;;;6215452;23;19924;-87
2023/04/07 06:55:06;;;;;;;;;;;;;;;;;;6163910;23;19920;-87
2023/04/07 06:57:33;;;;;;;;;;;;;;;;;;6215084;23;19920;-88
2023/04/07 07:00:03;;;;;;;;;;;;;;;;;;6215196;23;19920;-88
2023/04/07 07:02:30;;;;;;;;;;;;;;;;;;6225118;23;19936;-88
2023/04/07 07:04:57;;;;;;;;;;;;;;;;;;6188430;23;19920;-88
2023/04/07 07:07:25;;;;;;;;;;;;;;;;;;6215392;23;19920;-88
2023/04/07 07:09:53;;;;;;;;;;;;;;;;;;6188593;23;20241;-88
2023/04/07 07:12:20;;;;;;;;;;;;;;;;;;6215070;23;19923;-88
2023/04/07 07:14:47;;;;;;;;;;;;;;;;;;6215684;23;19920;-88
2023/04/07 07:17:15;;;;;;;;;;;;;;;;;;6188607;23;19920;-88
2023/04/07 07:19:42;;;;;;;;;;;;;;;;;;6163872;23;19963;-88
2023/04/07 07:22:09;;;;;;;;;;;;;;;;;;6215070;23;19927;-88
2023/04/07 07:24:36;;;;;;;;;;;;;;;;;;6215501;23;20340;-87
2023/04/07 07:27:04;;;;;;;;;;;;;;;;;;6215209;23;19923;-87
2023/04/07 07:29:33;;;;;;;;;;;;;;;;;;6225374;23;19930;-88
2023/04/07 07:32:00;;;;;;;;;;;;;;;;;;6188217;23;19935;-87
2023/04/07 07:34:30;;;;;;;;;;;;;;;;;;6215265;23;19924;-88
2023/04/07 07:36:59;;;;;;;;;;;;;;;;;;6215516;23;19920;-88
2023/04/07 07:39:27;;;;;;;;;;;;;;;;;;6189354;23;19920;-88
2023/04/07 07:41:54;;;;;;;;;;;;;;;;;;6215649;23;20186;-88
2023/04/07 07:44:26;;;;;;;;;;;;;;;;;;6216189;23;19943;-88
2023/04/07 07:46:53;;;;;;;;;;;;;;;;;;6216518;23;19920;-88
2023/04/07 07:49:20;;;;;;;;;;;;;;;;;;6216083;23;19927;-88
2023/04/07 07:51:47;;;;;;;;;;;;;;;;;;6190201;23;19920;-88
2023/04/07 07:54:14;;;;;;;;;;;;;;;;;;6215923;23;19927;-88
2023/04/07 07:56:41;;;;;;;;;;;;;;;;;;6216262;23;19924;-88
2023/04/07 07:59:10;;;;;;;;;;;;;;;;;;6215773;23;19920;-88
2023/04/07 08:01:39;;;;;;;;;;;;;;;;;;6163716;23;20335;-88
2023/04/07 08:04:06;;;;;;;;;;;;;;;;;;6215683;23;19920;-88
2023/04/07 08:06:33;;;;;;;;;;;;;;;;;;6194865;23;19920;-87
2023/04/07 08:09:03;;;;;;;;;;;;;;;;;;6179126;23;19934;-88
2023/04/07 08:11:30;;;;;;;;;;;;;;;;;;6196876;23;19920;-88
2023/04/07 08:13:59;;;;;;;;;;;;;;;;;;6173889;23;20251;-89
2023/04/07 08:16:26;;;;;;;;;;;;;;;;;;6200361;23;19930;-88
2023/04/07 08:18:55;;;;;;;;;;;;;;;;;;6196173;23;19920;-88
2023/04/07 08:21:22;;;;;;;;;;;;;;;;;;6224941;23;19924;-88
2023/04/07 08:23:51;;;;;;;;;;;;;;;;;;6202909;23;20343;-89
2023/04/07 08:26:18;;;;;;;;;;;;;;;;;;6236434;23;19920;-88
2023/04/07 08:28:45;;;;;;;;;;;;;;;;;;6216071;23;19926;-87
2023/04/07 08:31:12;;;;;;;;;;;;;;;;;;6206244;23;19919;-87
2023/04/07 08:33:42;;;;;;;;;;;;;;;;;;6234304;23;19920;-88
2023/04/07 08:36:10;;;;;;;;;;;;;;;;;;6208463;23;19924;-88
2023/04/07 08:38:40;;;;;;;;;;;;;;;;;;6210815;23;19920;-88
2023/04/07 08:41:08;;;;;;;;;;;;;;;;;;6184352;23;19920;-87
2023/04/07 08:43:37;;;;;;;;;;;;;;;;;;6209792;23;19908;-88
2023/04/07 08:46:07;;;;;;;;;;;;;;;;;;6236943;23;19920;-87
2023/04/07 08:48:34;;;;;;;;;;;;;;;;;;6235563;23;19920;-88
2023/04/07 08:51:03;;;;;;;;;;;;;;;;;;6235962;23;19926;-88
2023/04/07 08:53:33;;;;;;;;;;;;;;;;;;6225768;23;19920;-88
2023/04/07 08:56:00;;;;;;;;;;;;;;;;;;6227178;23;20335;-87
2023/04/07 08:58:27;;;;;;;;;;;;;;;;;;6225519;23;19927;-87
2023/04/07 09:00:57;;;;;;;;;;;;;;;;;;6221277;23;19926;-88
2023/04/07 09:03:24;;;;;;;;;;;;;;;;;;6194818;23;19920;-88
2023/04/07 09:05:51;;;;;;;;;;;;;;;;;;6195499;23;19919;-88
2023/04/07 09:08:18;;;;;;;;;;;;;;;;;;6171945;23;19920;-87
2023/04/07 09:10:46;;;;;;;;;;;;;;;;;;6171378;23;19926;-87
2023/04/07 09:13:13;;;;;;;;;;;;;;;;;;6192655;23;19927;-87
2023/04/07 09:15:40;;;;;;;;;;;;;;;;;;6221016;23;19920;-87
2023/04/07 09:18:07;;;;;;;;;;;;;;;;;;6221275;23;19926;-87
2023/04/07 09:20:53;;;;;;;;;;;;;;;;;;6223146;23;19919;-87
2023/04/07 09:23:27;;;;;;;;;;;;;;;;;;6205407;23;20336;-88
2023/04/07 09:25:58;;;;;;;;;;;;;;;;;;6230310;23;19926;-87
2023/04/07 09:28:25;;;;;;;;;;;;;;;;;;6229970;23;19927;-88
2023/04/07 09:30:52;;;;;;;;;;;;;;;;;;6190836;23;19924;-88
2023/04/07 09:33:26;;;;;;;;;;;;;;;;;;6191218;23;19927;-87
2023/04/07 09:35:56;;;;;;;;;;;;;;;;;;6189879;23;19924;-88
2023/04/07 09:38:32;;;;;;;;;;;;;;;;;;6221171;23;19920;-86
2023/04/07 09:41:09;;;;;;;;;;;;;;;;;;6232182;23;19931;-88
2023/04/07 09:43:40;;;;;;;;;;;;;;;;;;6171428;23;19927;-88
2023/04/07 09:46:09;;;;;;;;;;;;;;;;;;6207580;23;19930;-87
2023/04/07 09:48:41;;;;;;;;;;;;;;;;;;6206499;23;19920;-88
2023/04/07 09:51:11;;;;;;;;;;;;;;;;;;6181555;23;19926;-87
2023/04/07 09:53:41;;;;;;;;;;;;;;;;;;6232539;23;19942;-87
2023/04/07 09:56:10;;;;;;;;;;;;;;;;;;6205480;23;20312;-87
2023/04/07 09:58:40;;;;;;;;;;;;;;;;;;6242670;23;19920;-88
2023/04/07 10:01:07;;;;;;;;;;;;;;;;;;6231383;23;19920;-87
2023/04/07 10:03:34;;;;;;;;;;;;;;;;;;6231881;23;20350;-87
2023/04/07 10:06:01;;;;;;;;;;;;;;;;;;6233903;23;19920;-88
2023/04/07 10:08:31;;;;;;;;;;;;;;;;;;6234159;23;19920;-88
2023/04/07 10:11:03;;;;;;;;;;;;;;;;;;6241746;23;19924;-87
2023/04/07 10:13:32;;;;;;;;;;;;;;;;;;6236365;23;20323;-87
2023/04/07 10:15:59;;;;;;;;;;;;;;;;;;6225306;23;19920;-87
2023/04/07 10:18:29;;;;;;;;;;;;;;;;;;6220956;23;19931;-87
2023/04/07 10:21:02;;;;;;;;;;;;;;;;;;6225886;23;19920;-87
2023/04/07 10:23:32;;;;;;;;;;;;;;;;;;6216328;23;19919;-87
2023/04/07 11:13:14;;;;;;;;;;;;;;;;;;6215925;23;19919;-89
2023/04/07 11:15:43;;;;;;;;;;;;;;;;;;6169430;23;19920;-89
2023/04/07 11:18:14;;;;;;;;;;;;;;;;;;6189928;23;19920;-88
2023/04/07 11:20:45;;;;;;;;;;;;;;;;;;6188998;23;19942;-88
2023/04/07 11:23:12;;;;;;;;;;;;;;;;;;6198564;23;20316;-88
2023/04/07 11:25:40;;;;;;;;;;;;;;;;;;6188246;23;19920;-89
2023/04/07 11:28:09;;;;;;;;;;;;;;;;;;6188280;23;19920;-88
2023/04/07 11:30:36;;;;;;;;;;;;;;;;;;6214847;23;19924;-90
2023/04/07 11:33:05;;;;;;;;;;;;;;;;;;6188497;23;20255;-89
2023/04/07 11:35:32;;;;;;;;;;;;;;;;;;6215193;23;19920;-89
2023/04/07 11:38:02;;;;;;;;;;;;;;;;;;6214831;23;19920;-89
2023/04/07 11:40:33;;;;;;;;;;;;;;;;;;6224760;23;19927;-90
2023/04/07 11:43:01;;;;;;;;;;;;;;;;;;6198538;23;19920;-89
2023/04/07 11:45:28;;;;;;;;;;;;;;;;;;6188357;23;19920;-89
2023/04/07 11:47:55;;;;;;;;;;;;;;;;;;6163211;23;19924;-89
2023/04/07 11:50:39;;;;;;;;;;;;;;;;;;6214852;23;19920;-89
2023/04/07 11:53:06;;;;;;;;;;;;;;;;;;6224744;23;20256;-90
2023/04/07 11:55:33;;;;;;;;;;;;;;;;;;6188093;23;19927;-89
2023/04/07 13:50:42;;;;;;;;;;;;;;;;;;6184468;23;19920;-90
2023/04/07 13:53:09;;;;;;;;;;;;;;;;;;6185617;23;19928;-89
2023/04/07 13:55:36;;;;;;;;;;;;;;;;;;6186153;23;19920;-88
2023/04/07 13:58:03;;;;;;;;;;;;;;;;;;6160157;23;19920;-89
2023/04/07 14:00:30;;;;;;;;;;;;;;;;;;6159812;23;19928;-89
2023/04/07 14:02:58;;;;;;;;;;;;;;;;;;6134568;23;20257;-89
2023/04/07 14:05:25;;;;;;;;;;;;;;;;;;6134941;23;19927;-89
2023/04/07 14:07:53;;;;;;;;;;;;;;;;;;6159549;23;19920;-90
2023/04/07 14:10:20;;;;;;;;;;;;;;;;;;6159594;23;19929;-90
2023/04/07 14:12:47;;;;;;;;;;;;;;;;;;6159126;23;19920;-90
2023/04/07 14:15:14;;;;;;;;;;;;;;;;;;6185798;23;20364;-90
2023/04/07 14:17:41;;;;;;;;;;;;;;;;;;6159175;23;20332;-89
2023/04/07 14:20:09;;;;;;;;;;;;;;;;;;6185811;23;20331;-90
2023/04/07 14:22:36;;;;;;;;;;;;;;;;;;6159471;23;20260;-89
2023/04/07 14:25:05;;;;;;;;;;;;;;;;;;6186149;23;20390;-89
2023/04/07 14:27:32;;;;;;;;;;;;;;;;;;6159019;23;19920;-89
2023/04/07 14:30:00;;;;;;;;;;;;;;;;;;6195609;23;20243;-89
2023/04/07 14:32:28;;;;;;;;;;;;;;;;;;6195145;23;20328;-90
2023/04/07 14:58:16;;;;;;;;;;;;;;;;;;6215452;23;19920;-88
2023/04/07 15:00:43;;;;;;;;;;;;;;;;;;6163887;23;19926;-90
2023/04/07 15:03:10;;;;;;;;;;;;;;;;;;6188785;23;19943;-89
2023/04/07 15:05:37;;;;;;;;;;;;;;;;;;6163990;23;20348;-88
2023/04/07 15:08:05;;;;;;;;;;;;;;;;;;6188928;23;19963;-89
2023/04/07 15:10:34;;;;;;;;;;;;;;;;;;6188649;23;20371;-89
2023/04/07 15:13:02;;;;;;;;;;;;;;;;;;6163597;23;19927;-89
2023/04/07 15:15:30;;;;;;;;;;;;;;;;;;6215204;23;19924;-89
2023/04/07 15:17:57;;;;;;;;;;;;;;;;;;6163459;23;19920;-89
2023/04/07 15:20:24;;;;;;;;;;;;;;;;;;6215265;23;19927;-88
2023/04/07 15:22:51;;;;;;;;;;;;;;;;;;6188671;23;19927;-89
2023/04/07 15:25:19;;;;;;;;;;;;;;;;;;6189008;23;19924;-89
2023/04/07 15:27:46;;;;;;;;;;;;;;;;;;6216781;23;19927;-89
2023/04/07 15:30:13;;;;;;;;;;;;;;;;;;6215068;23;19920;-89
2023/04/07 15:32:43;;;;;;;;;;;;;;;;;;6188795;23;19920;-89
2023/04/07 15:35:10;;;;;;;;;;;;;;;;;;6214870;23;19927;-89
2023/04/07 15:37:37;;;;;;;;;;;;;;;;;;6188631;23;19927;-89
2023/04/07 15:40:04;;;;;;;;;;;;;;;;;;6213524;23;19920;-89
2023/04/07 15:42:38;;;;;;;;;;;;;;;;;;6188074;23;20365;-89
2023/04/07 15:45:06;;;;;;;;;;;;;;;;;;6163179;23;19920;-89
2023/04/07 15:47:33;;;;;;;;;;;;;;;;;;6188786;23;20257;-89
2023/04/07 15:50:01;;;;;;;;;;;;;;;;;;6188274;23;19920;-89
2023/04/07 15:52:30;;;;;;;;;;;;;;;;;;6198086;23;19945;-89
2023/04/07 15:54:57;;;;;;;;;;;;;;;;;;6163320;23;19920;-90
2023/04/07 15:57:24;;;;;;;;;;;;;;;;;;6214575;23;19923;-89
2023/04/07 15:59:52;;;;;;;;;;;;;;;;;;6188626;23;20279;-90
2023/04/07 16:02:19;;;;;;;;;;;;;;;;;;6224663;23;19933;-89
2023/04/07 16:04:46;;;;;;;;;;;;;;;;;;6163679;23;20348;-89
2023/04/07 16:07:15;;;;;;;;;;;;;;;;;;6214765;23;19920;-89
2023/04/07 16:09:42;;;;;;;;;;;;;;;;;;6163072;23;20260;-89
2023/04/07 16:12:09;;;;;;;;;;;;;;;;;;6187886;23;19924;-88
2023/04/07 16:14:36;;;;;;;;;;;;;;;;;;6213957;23;19944;-90
2023/04/07 16:17:03;;;;;;;;;;;;;;;;;;6187786;23;19927;-89
2023/04/07 16:27:22;;;;;;;;;;;;;;;;;;6190567;23;19927;-86
2023/04/07 16:29:49;;;;;;;;;;;;;;;;;;6224978;23;19930;-86
2023/04/07 16:32:16;;;;;;;;;;;;;;;;;;6215021;23;19942;-86
2023/04/07 16:34:45;;;;;;;;;;;;;;;;;;6188326;23;19920;-86
2023/04/07 16:37:12;;;;;;;;;;;;;;;;;;6188520;23;19927;-86
2023/04/07 16:39:40;;;;;;;;;;;;;;;;;;6218650;23;19920;-86
2023/04/07 16:42:09;;;;;;;;;;;;;;;;;;6218136;23;19939;-86
2023/04/07 16:44:40;;;;;;;;;;;;;;;;;;6245104;23;19931;-86
2023/04/07 16:47:07;;;;;;;;;;;;;;;;;;6245376;23;20386;-87
2023/04/07 16:49:34;;;;;;;;;;;;;;;;;;6218379;23;19920;-86
2023/04/07 16:52:04;;;;;;;;;;;;;;;;;;6245121;23;19927;-86
2023/04/07 16:54:34;;;;;;;;;;;;;;;;;;6219450;23;19920;-86
2023/04/07 16:57:04;;;;;;;;;;;;;;;;;;6219467;23;19920;-86
2023/04/07 16:59:31;;;;;;;;;;;;;;;;;;6220331;23;19926;-86
2023/04/07 17:02:01;;;;;;;;;;;;;;;;;;6220288;23;19923;-86
2023/04/07 17:04:28;;;;;;;;;;;;;;;;;;6246834;22;19927;-86
2023/04/07 17:06:55;;;;;;;;;;;;;;;;;;6221061;23;19919;-86
2023/04/07 17:09:22;;;;;;;;;;;;;;;;;;6220380;23;19920;-86
2023/04/07 17:11:49;;;;;;;;;;;;;;;;;;6220044;23;19938;-86
2023/04/07 17:14:18;;;;;;;;;;;;;;;;;;6220001;23;19931;-86
2023/04/07 17:16:45;;;;;;;;;;;;;;;;;;6246880;23;19926;-86
2023/04/07 17:19:13;;;;;;;;;;;;;;;;;;6247102;23;19920;-86
2023/04/07 17:21:40;;;;;;;;;;;;;;;;;;6194977;23;19935;-86
2023/04/07 17:24:07;;;;;;;;;;;;;;;;;;6230107;23;19927;-86
2023/04/07 17:26:36;;;;;;;;;;;;;;;;;;6194761;23;19920;-86
2023/04/07 17:29:06;;;;;;;;;;;;;;;;;;6257078;23;19919;-86
2023/04/07 17:31:34;;;;;;;;;;;;;;;;;;6219975;23;19926;-86
2023/04/07 17:34:01;;;;;;;;;;;;;;;;;;6194954;23;19919;-86
2023/04/07 17:36:31;;;;;;;;;;;;;;;;;;6255727;23;19923;-86
2023/04/07 17:39:01;;;;;;;;;;;;;;;;;;6230591;23;19920;-86
2023/04/07 17:41:33;;;;;;;;;;;;;;;;;;6230619;23;20259;-86
2023/04/07 17:44:00;;;;;;;;;;;;;;;;;;6220107;23;19920;-86
2023/04/07 17:46:27;;;;;;;;;;;;;;;;;;6219895;23;20331;-86
2023/04/07 17:48:56;;;;;;;;;;;;;;;;;;6219789;23;19919;-86
2023/04/07 17:51:26;;;;;;;;;;;;;;;;;;6257093;23;20251;-86
2023/04/07 17:53:55;;;;;;;;;;;;;;;;;;6220488;23;20236;-86
2023/04/07 17:56:23;;;;;;;;;;;;;;;;;;6256528;23;19920;-87
2023/04/07 17:58:50;;;;;;;;;;;;;;;;;;6247030;23;19920;-87
2023/04/07 18:01:17;;;;;;;;;;;;;;;;;;6194915;23;20340;-87
2023/04/07 18:03:44;;;;;;;;;;;;;;;;;;6246906;23;20362;-87
2023/04/07 18:06:15;;;;;;;;;;;;;;;;;;6256495;23;19939;-86
2023/04/07 18:08:42;;;;;;;;;;;;;;;;;;6246851;23;20335;-87
2023/04/07 18:11:10;;;;;;;;;;;;;;;;;;6221080;23;19938;-87
2023/04/07 18:13:40;;;;;;;;;;;;;;;;;;6226726;23;19928;-87
2023/04/07 18:16:15;;;;;;;;;;;;;;;;;;6275328;22;19947;-87
2023/04/07 18:18:42;;;;;;;;;;;;;;;;;;6285584;22;19940;-87
2023/04/07 18:21:09;;;;;;;;;;;;;;;;;;6275037;22;19959;-87
2023/04/07 18:23:36;;;;;;;;;;;;;;;;;;6229763;23;19919;-86
2023/04/07 18:26:03;;;;;;;;;;;;;;;;;;6231353;23;20263;-86
2023/04/07 18:28:32;;;;;;;;;;;;;;;;;;6228984;23;19920;-87
2023/04/07 18:30:59;;;;;;;;;;;;;;;;;;6256637;23;19934;-86
2023/04/07 18:33:31;;;;;;;;;;;;;;;;;;6201010;23;20331;-86
2023/04/07 18:36:02;;;;;;;;;;;;;;;;;;6198193;23;19919;-86
2023/04/07 18:38:29;;;;;;;;;;;;;;;;;;6224062;23;19923;-86
2023/04/07 18:40:56;;;;;;;;;;;;;;;;;;6223012;23;19927;-86
2023/04/07 18:43:23;;;;;;;;;;;;;;;;;;6259409;23;20245;-87
2023/04/07 18:45:52;;;;;;;;;;;;;;;;;;6248850;23;19919;-87
2023/04/07 18:48:20;;;;;;;;;;;;;;;;;;6247884;23;19931;-86
2023/04/07 18:50:51;;;;;;;;;;;;;;;;;;6259151;23;19927;-86
2023/04/07 18:53:18;;;;;;;;;;;;;;;;;;6260001;23;19927;-87
2023/04/07 18:55:45;;;;;;;;;;;;;;;;;;6258939;23;19926;-87
2023/04/07 18:58:13;;;;;;;;;;;;;;;;;;6222430;23;19919;-86
2023/04/07 19:00:40;;;;;;;;;;;;;;;;;;6249513;23;19924;-87
2023/04/07 19:03:08;;;;;;;;;;;;;;;;;;6249043;23;19927;-87
2023/04/07 19:05:36;;;;;;;;;;;;;;;;;;6222126;23;19923;-86
2023/04/07 19:08:04;;;;;;;;;;;;;;;;;;6249664;23;19920;-86
2023/04/07 19:10:31;;;;;;;;;;;;;;;;;;6267843;23;19919;-87
2023/04/07 19:12:59;;;;;;;;;;;;;;;;;;6221427;23;19919;-87
2023/04/07 19:15:31;;;;;;;;;;;;;;;;;;6195242;23;20338;-86
2023/04/07 19:18:01;;;;;;;;;;;;;;;;;;6249304;23;19919;-87
2023/04/07 19:20:29;;;;;;;;;;;;;;;;;;6219401;23;19941;-86
2023/04/07 19:22:59;;;;;;;;;;;;;;;;;;6257021;23;19927;-86
2023/04/07 19:25:26;;;;;;;;;;;;;;;;;;6246609;23;19926;-87
2023/04/07 19:27:53;;;;;;;;;;;;;;;;;;6222773;23;19931;-86
2023/04/07 19:30:20;;;;;;;;;;;;;;;;;;6219886;23;19930;-87
2023/04/07 19:32:47;;;;;;;;;;;;;;;;;;6246932;23;19920;-87
2023/04/07 19:35:15;;;;;;;;;;;;;;;;;;6246975;23;19952;-87
2023/04/07 19:37:43;;;;;;;;;;;;;;;;;;6194816;23;19927;-86
2023/04/07 19:40:10;;;;;;;;;;;;;;;;;;6246521;23;19920;-87
2023/04/07 19:42:38;;;;;;;;;;;;;;;;;;6246751;23;19926;-86
2023/04/07 19:45:07;;;;;;;;;;;;;;;;;;6220468;23;19919;-87
2023/04/07 19:47:34;;;;;;;;;;;;;;;;;;6195459;23;19919;-86
2023/04/07 19:50:04;;;;;;;;;;;;;;;;;;6247341;23;19927;-87
2023/04/07 19:52:31;;;;;;;;;;;;;;;;;;6194773;23;19919;-87
2023/04/07 19:55:00;;;;;;;;;;;;;;;;;;6257413;23;19943;-87
2023/04/07 19:57:29;;;;;;;;;;;;;;;;;;6219849;23;19919;-86
2023/04/07 19:59:56;;;;;;;;;;;;;;;;;;6247122;23;19920;-86
2023/04/07 20:02:23;;;;;;;;;;;;;;;;;;6220325;23;19920;-86
2023/04/07 20:04:51;;;;;;;;;;;;;;;;;;6219873;23;20366;-86
2023/04/07 20:07:18;;;;;;;;;;;;;;;;;;6245330;23;19919;-87
2023/04/07 20:09:45;;;;;;;;;;;;;;;;;;6245715;23;19919;-87
2023/04/07 20:12:13;;;;;;;;;;;;;;;;;;6218399;23;19920;-87
2023/04/07 20:14:40;;;;;;;;;;;;;;;;;;6245505;23;19920;-86
2023/04/07 20:17:07;;;;;;;;;;;;;;;;;;6245746;23;19920;-87
2023/04/07 20:19:37;;;;;;;;;;;;;;;;;;6218828;23;20287;-87
2023/04/07 20:22:04;;;;;;;;;;;;;;;;;;6219191;23;19919;-87
2023/04/07 20:24:31;;;;;;;;;;;;;;;;;;6245739;23;19920;-87
2023/04/07 20:26:58;;;;;;;;;;;;;;;;;;6218996;23;19926;-87
2023/04/07 20:29:26;;;;;;;;;;;;;;;;;;6218913;23;19920;-87
2023/04/07 20:31:58;;;;;;;;;;;;;;;;;;6258200;23;19942;-87
2023/04/07 20:34:25;;;;;;;;;;;;;;;;;;6223451;23;19935;-87
2023/04/07 20:36:55;;;;;;;;;;;;;;;;;;6223427;23;19919;-86
2023/04/07 20:39:22;;;;;;;;;;;;;;;;;;6248015;23;19919;-87
2023/04/07 20:41:49;;;;;;;;;;;;;;;;;;6246810;23;19923;-86
2023/04/07 20:44:18;;;;;;;;;;;;;;;;;;6249613;23;19931;-86
2023/04/07 20:46:50;;;;;;;;;;;;;;;;;;6257057;23;19927;-86
2023/04/07 20:49:17;;;;;;;;;;;;;;;;;;6223465;23;19919;-86
2023/04/07 20:51:46;;;;;;;;;;;;;;;;;;6249762;23;19927;-86
2023/04/07 20:54:13;;;;;;;;;;;;;;;;;;6223694;23;19926;-87
2023/04/07 20:56:41;;;;;;;;;;;;;;;;;;6224125;23;19934;-86
2023/04/07 20:59:08;;;;;;;;;;;;;;;;;;6251729;23;19942;-87
2023/04/07 21:01:35;;;;;;;;;;;;;;;;;;6249610;23;19930;-86
2023/04/07 21:04:04;;;;;;;;;;;;;;;;;;6222940;23;19920;-87
2023/04/07 21:06:31;;;;;;;;;;;;;;;;;;6251003;23;19926;-86
2023/04/07 21:09:01;;;;;;;;;;;;;;;;;;6250007;23;19930;-86
2023/04/07 21:11:30;;;;;;;;;;;;;;;;;;6259243;23;19938;-86
2023/04/07 21:13:57;;;;;;;;;;;;;;;;;;6197880;23;19926;-86
2023/04/07 21:16:24;;;;;;;;;;;;;;;;;;6249661;23;19920;-86
2023/04/07 21:18:51;;;;;;;;;;;;;;;;;;6249071;23;19924;-86
2023/04/07 21:21:20;;;;;;;;;;;;;;;;;;6249861;23;19919;-86
2023/04/07 21:23:47;;;;;;;;;;;;;;;;;;6250682;23;19920;-86
2023/04/07 21:26:14;;;;;;;;;;;;;;;;;;6258894;23;19919;-86
2023/04/07 21:28:41;;;;;;;;;;;;;;;;;;6250073;23;19941;-86
2023/04/07 21:31:09;;;;;;;;;;;;;;;;;;6249550;23;19926;-86
2023/04/07 21:33:37;;;;;;;;;;;;;;;;;;6250186;23;19919;-85
2023/04/07 21:36:04;;;;;;;;;;;;;;;;;;6221146;23;19934;-86
2023/04/07 21:38:32;;;;;;;;;;;;;;;;;;6250530;23;19919;-86
2023/04/07 21:41:00;;;;;;;;;;;;;;;;;;6222797;23;19938;-86
2023/04/07 21:43:30;;;;;;;;;;;;;;;;;;6221386;23;19919;-86
2023/04/07 21:45:59;;;;;;;;;;;;;;;;;;6248222;23;19927;-86
2023/04/07 21:48:26;;;;;;;;;;;;;;;;;;6195670;23;19920;-85
2023/04/07 21:50:53;;;;;;;;;;;;;;;;;;6257905;23;19920;-86
2023/04/07 21:53:20;;;;;;;;;;;;;;;;;;6220728;23;19927;-85
2023/04/07 21:55:50;;;;;;;;;;;;;;;;;;6220361;23;19931;-85
2023/04/07 21:58:17;;;;;;;;;;;;;;;;;;6221620;23;19927;-86
2023/04/07 22:00:47;;;;;;;;;;;;;;;;;;6220571;23;19924;-85
2023/04/07 22:03:15;;;;;;;;;;;;;;;;;;6195291;23;19919;-85
2023/04/07 22:05:42;;;;;;;;;;;;;;;;;;6218551;23;19919;-86
2023/04/07 22:08:09;;;;;;;;;;;;;;;;;;6247735;23;19923;-85
2023/04/07 22:10:36;;;;;;;;;;;;;;;;;;6256639;23;19920;-86
2023/04/07 22:13:07;;;;;;;;;;;;;;;;;;6219695;23;20223;-85
2023/04/07 22:15:34;;;;;;;;;;;;;;;;;;6245510;23;19920;-85
2023/04/07 22:18:03;;;;;;;;;;;;;;;;;;6245451;23;19927;-86
2023/04/07 22:20:30;;;;;;;;;;;;;;;;;;6229647;23;19919;-86
2023/04/07 22:22:57;;;;;;;;;;;;;;;;;;6256114;23;19919;-85
2023/04/07 22:25:24;;;;;;;;;;;;;;;;;;6244527;23;19942;-85
2023/04/07 22:27:52;;;;;;;;;;;;;;;;;;6225131;22;19920;-88
2023/04/07 22:30:23;;;;;;;;;;;;;;;;;;6188009;23;19920;-88
2023/04/07 22:32:50;;;;;;;;;;;;;;;;;;6197795;23;19950;-88
2023/04/07 22:35:17;;;;;;;;;;;;;;;;;;6162587;23;19923;-88
2023/04/07 22:37:44;;;;;;;;;;;;;;;;;;6230821;23;19923;-89
2023/04/07 22:40:11;;;;;;;;;;;;;;;;;;6218821;23;19920;-89
2023/04/07 22:42:39;;;;;;;;;;;;;;;;;;6245255;23;19920;-89
2023/04/07 22:45:07;;;;;;;;;;;;;;;;;;6245258;23;20366;-89
2023/04/07 22:47:35;;;;;;;;;;;;;;;;;;6244644;22;20258;-89
2023/04/07 22:50:02;;;;;;;;;;;;;;;;;;6218265;23;19920;-89
2023/04/07 22:52:30;;;;;;;;;;;;;;;;;;6193106;23;19919;-89
2023/04/07 22:54:57;;;;;;;;;;;;;;;;;;6244361;23;19920;-88
2023/04/07 22:57:25;;;;;;;;;;;;;;;;;;6217313;23;20322;-89
2023/04/07 22:59:52;;;;;;;;;;;;;;;;;;6219202;23;19926;-90
2023/04/07 23:02:19;;;;;;;;;;;;;;;;;;6193696;23;19919;-89
2023/04/07 23:04:47;;;;;;;;;;;;;;;;;;6245472;23;19919;-90
2023/04/07 23:07:14;;;;;;;;;;;;;;;;;;6218141;23;19930;-89
2023/04/07 23:09:41;;;;;;;;;;;;;;;;;;6219167;23;19919;-89
2023/04/07 23:12:09;;;;;;;;;;;;;;;;;;6245231;23;19927;-89
2023/04/07 23:14:36;;;;;;;;;;;;;;;;;;6244264;23;19920;-90
2023/04/07 23:17:03;;;;;;;;;;;;;;;;;;6244799;23;19920;-89
2023/04/07 23:19:30;;;;;;;;;;;;;;;;;;6217656;23;19920;-89
2023/04/07 23:21:59;;;;;;;;;;;;;;;;;;6218112;23;19920;-89
2023/04/07 23:24:26;;;;;;;;;;;;;;;;;;6217204;23;19919;-89
2023/04/07 23:26:55;;;;;;;;;;;;;;;;;;6217854;23;19926;-90
2023/04/07 23:29:22;;;;;;;;;;;;;;;;;;6254359;23;19930;-89
2023/04/07 23:31:49;;;;;;;;;;;;;;;;;;6244323;23;19919;-89
2023/04/07 23:34:19;;;;;;;;;;;;;;;;;;6218063;23;19920;-89
2023/04/07 23:36:46;;;;;;;;;;;;;;;;;;6244843;23;19926;-89
2023/04/07 23:39:14;;;;;;;;;;;;;;;;;;6216629;23;20258;-89
2023/04/07 23:41:41;;;;;;;;;;;;;;;;;;6245460;23;20339;-90
2023/04/07 23:44:08;;;;;;;;;;;;;;;;;;6244827;23;19924;-89
2023/04/07 23:46:35;;;;;;;;;;;;;;;;;;6245540;23;20229;-89
2023/04/07 23:49:03;;;;;;;;;;;;;;;;;;6244822;23;20247;-90